sensor_id;sensor_type;location;lat;lon;timestamp;temperature;humidity
26505;DHT22;19493;48.042;7.584;2024-01-27T00:00:35;2.00;99.90
26505;DHT22;19493;48.042;7.584;2024-01-27T00:03:01;2.00;99.90
26505;DHT22;19493;48.042;7.584;2024-01-27T00:05:27;2.00;99.90
26505;DHT22;19493;48.042;7.584;2024-01-27T00:07:53;2.00;99.90
26505;DHT22;19493;48.042;7.584;2024-01-27T00:10:19;1.90;99.90
26505;DHT22;19493;48.042;7.584;2024-01-27T00:12:44;1.80;99.90
26505;DHT22;19493;48.042;7.584;2024-01-27T00:15:10;1.70;99.90
26505;DHT22;19493;48.042;7.584;2024-01-27T00:17:35;1.60;99.90
26505;DHT22;19493;48.042;7.584;2024-01-27T00:20:01;1.60;99.90
26505;DHT22;19493;48.042;7.584;2024-01-27T00:22:28;1.60;99.90
26505;DHT22;19493;48.042;7.584;2024-01-27T00:24:53;1.60;99.90
26505;DHT22;19493;48.042;7.584;2024-01-27T00:27:19;1.70;99.90
26505;DHT22;19493;48.042;7.584;2024-01-27T00:29:45;1.70;99.90
26505;DHT22;19493;48.042;7.584;2024-01-27T00:32:10;1.70;99.90
26505;DHT22;19493;48.042;7.584;2024-01-27T00:34:36;1.70;99.90
26505;DHT22;19493;48.042;7.584;2024-01-27T00:37:01;1.70;99.90
26505;DHT22;19493;48.042;7.584;2024-01-27T00:39:27;1.70;99.90
26505;DHT22;19493;48.042;7.584;2024-01-27T00:41:52;1.60;99.90
26505;DHT22;19493;48.042;7.584;2024-01-27T00:44:20;1.60;99.90
26505;DHT22;19493;48.042;7.584;2024-01-27T00:46:45;1.70;99.90
26505;DHT22;19493;48.042;7.584;2024-01-27T00:49:11;1.60;99.90
26505;DHT22;19493;48.042;7.584;2024-01-27T00:51:36;1.60;99.90
26505;DHT22;19493;48.042;7.584;2024-01-27T00:54:02;1.50;99.90
26505;DHT22;19493;48.042;7.584;2024-01-27T00:56:28;1.50;99.90
26505;DHT22;19493;48.042;7.584;2024-01-27T00:58:53;1.50;99.90
26505;DHT22;19493;48.042;7.584;2024-01-27T01:01:19;1.40;99.90
26505;DHT22;19493;48.042;7.584;2024-01-27T01:03:44;1.40;99.90
26505;DHT22;19493;48.042;7.584;2024-01-27T01:06:11;1.50;99.90
26505;DHT22;19493;48.042;7.584;2024-01-27T01:08:36;1.50;99.90
26505;DHT22;19493;48.042;7.584;2024-01-27T01:11:02;1.50;99.90
26505;DHT22;19493;48.042;7.584;2024-01-27T01:13:27;1.40;99.90
26505;DHT22;19493;48.042;7.584;2024-01-27T01:15:53;1.40;99.90
26505;DHT22;19493;48.042;7.584;2024-01-27T01:18:19;1.30;99.90
26505;DHT22;19493;48.042;7.584;2024-01-27T01:20:44;1.30;99.90
26505;DHT22;19493;48.042;7.584;2024-01-27T01:23:10;1.40;99.90
26505;DHT22;19493;48.042;7.584;2024-01-27T01:25:35;1.40;99.90
26505;DHT22;19493;48.042;7.584;2024-01-27T01:28:01;1.30;99.90
26505;DHT22;19493;48.042;7.584;2024-01-27T01:30:27;1.30;99.90
26505;DHT22;19493;48.042;7.584;2024-01-27T01:32:52;1.20;99.90
26505;DHT22;19493;48.042;7.584;2024-01-27T01:35:18;1.10;99.90
26505;DHT22;19493;48.042;7.584;2024-01-27T01:37:43;1.00;99.90
26505;DHT22;19493;48.042;7.584;2024-01-27T01:40:09;1.10;99.90
26505;DHT22;19493;48.042;7.584;2024-01-27T01:42:35;1.10;99.90
26505;DHT22;19493;48.042;7.584;2024-01-27T01:45:00;1.10;99.90
26505;DHT22;19493;48.042;7.584;2024-01-27T01:47:26;1.10;99.90
26505;DHT22;19493;48.042;7.584;2024-01-27T01:49:52;1.10;99.90
26505;DHT22;19493;48.042;7.584;2024-01-27T01:52:18;1.10;99.90
26505;DHT22;19493;48.042;7.584;2024-01-27T01:54:50;1.00;99.90
26505;DHT22;19493;48.042;7.584;2024-01-27T01:57:16;1.00;99.90
26505;DHT22;19493;48.042;7.584;2024-01-27T01:59:42;1.10;99.90
26505;DHT22;19493;48.042;7.584;2024-01-27T02:02:09;1.10;99.90
26505;DHT22;19493;48.042;7.584;2024-01-27T02:04:44;1.00;99.90
26505;DHT22;19493;48.042;7.584;2024-01-27T02:07:11;1.00;99.90
26505;DHT22;19493;48.042;7.584;2024-01-27T02:09:37;0.90;99.90
26505;DHT22;19493;48.042;7.584;2024-01-27T02:12:03;0.90;99.90
26505;DHT22;19493;48.042;7.584;2024-01-27T02:14:28;0.80;99.90
26505;DHT22;19493;48.042;7.584;2024-01-27T02:16:54;0.90;99.90
26505;DHT22;19493;48.042;7.584;2024-01-27T02:19:20;0.90;99.90
26505;DHT22;19493;48.042;7.584;2024-01-27T02:21:46;0.90;99.90
26505;DHT22;19493;48.042;7.584;2024-01-27T02:24:11;0.90;99.90
26505;DHT22;19493;48.042;7.584;2024-01-27T02:26:37;0.80;99.90
26505;DHT22;19493;48.042;7.584;2024-01-27T02:29:02;0.80;99.90
26505;DHT22;19493;48.042;7.584;2024-01-27T02:31:28;0.80;99.90
26505;DHT22;19493;48.042;7.584;2024-01-27T02:33:54;0.70;99.90
26505;DHT22;19493;48.042;7.584;2024-01-27T02:36:20;0.70;99.90
26505;DHT22;19493;48.042;7.584;2024-01-27T02:38:45;0.60;99.90
26505;DHT22;19493;48.042;7.584;2024-01-27T02:41:11;0.60;99.90
26505;DHT22;19493;48.042;7.584;2024-01-27T02:43:37;0.50;99.90
26505;DHT22;19493;48.042;7.584;2024-01-27T02:46:11;0.50;99.90
26505;DHT22;19493;48.042;7.584;2024-01-27T02:48:43;0.60;99.90
26505;DHT22;19493;48.042;7.584;2024-01-27T02:51:09;0.70;99.90
26505;DHT22;19493;48.042;7.584;2024-01-27T02:53:34;0.60;99.90
26505;DHT22;19493;48.042;7.584;2024-01-27T02:56:00;0.60;99.90
26505;DHT22;19493;48.042;7.584;2024-01-27T02:58:25;0.50;99.90
26505;DHT22;19493;48.042;7.584;2024-01-27T03:00:51;0.50;99.90
26505;DHT22;19493;48.042;7.584;2024-01-27T03:03:17;0.40;99.90
26505;DHT22;19493;48.042;7.584;2024-01-27T03:05:42;0.40;99.90
26505;DHT22;19493;48.042;7.584;2024-01-27T03:08:08;0.40;99.90
26505;DHT22;19493;48.042;7.584;2024-01-27T03:10:33;0.30;99.90
26505;DHT22;19493;48.042;7.584;2024-01-27T03:12:59;0.30;99.90
26505;DHT22;19493;48.042;7.584;2024-01-27T03:15:25;0.30;99.90
26505;DHT22;19493;48.042;7.584;2024-01-27T03:17:50;0.40;99.90
26505;DHT22;19493;48.042;7.584;2024-01-27T03:20:16;0.50;99.90
26505;DHT22;19493;48.042;7.584;2024-01-27T03:22:41;0.50;99.90
26505;DHT22;19493;48.042;7.584;2024-01-27T03:25:09;0.50;99.90
26505;DHT22;19493;48.042;7.584;2024-01-27T03:27:35;0.60;99.90
26505;DHT22;19493;48.042;7.584;2024-01-27T03:30:01;0.70;99.90
26505;DHT22;19493;48.042;7.584;2024-01-27T03:32:27;0.80;99.90
26505;DHT22;19493;48.042;7.584;2024-01-27T03:34:53;0.80;99.90
26505;DHT22;19493;48.042;7.584;2024-01-27T03:37:21;0.80;99.90
26505;DHT22;19493;48.042;7.584;2024-01-27T03:39:47;0.70;99.90
26505;DHT22;19493;48.042;7.584;2024-01-27T03:42:13;0.70;99.90
26505;DHT22;19493;48.042;7.584;2024-01-27T03:44:38;0.70;99.90
26505;DHT22;19493;48.042;7.584;2024-01-27T03:47:04;0.70;99.90
26505;DHT22;19493;48.042;7.584;2024-01-27T03:49:29;0.70;99.90
26505;DHT22;19493;48.042;7.584;2024-01-27T03:51:55;0.60;99.90
26505;DHT22;19493;48.042;7.584;2024-01-27T03:54:21;0.60;99.90
26505;DHT22;19493;48.042;7.584;2024-01-27T03:56:46;0.60;99.90
26505;DHT22;19493;48.042;7.584;2024-01-27T03:59:12;0.50;99.90
26505;DHT22;19493;48.042;7.584;2024-01-27T04:01:38;0.50;99.90
26505;DHT22;19493;48.042;7.584;2024-01-27T04:04:03;0.50;99.90
26505;DHT22;19493;48.042;7.584;2024-01-27T04:06:29;0.50;99.90
26505;DHT22;19493;48.042;7.584;2024-01-27T04:08:54;0.50;99.90
26505;DHT22;19493;48.042;7.584;2024-01-27T04:11:21;0.40;99.90
26505;DHT22;19493;48.042;7.584;2024-01-27T04:13:48;0.40;99.90
26505;DHT22;19493;48.042;7.584;2024-01-27T04:16:14;0.30;99.90
26505;DHT22;19493;48.042;7.584;2024-01-27T04:18:40;0.40;99.90
26505;DHT22;19493;48.042;7.584;2024-01-27T04:21:05;0.50;99.90
26505;DHT22;19493;48.042;7.584;2024-01-27T04:23:31;0.50;99.90
26505;DHT22;19493;48.042;7.584;2024-01-27T04:25:57;0.40;99.90
26505;DHT22;19493;48.042;7.584;2024-01-27T04:28:23;0.40;99.90
26505;DHT22;19493;48.042;7.584;2024-01-27T04:30:49;0.40;99.90
26505;DHT22;19493;48.042;7.584;2024-01-27T04:33:14;0.50;99.90
26505;DHT22;19493;48.042;7.584;2024-01-27T04:35:40;0.50;99.90
26505;DHT22;19493;48.042;7.584;2024-01-27T04:38:10;0.40;99.90
26505;DHT22;19493;48.042;7.584;2024-01-27T04:40:36;0.30;99.90
26505;DHT22;19493;48.042;7.584;2024-01-27T04:43:02;0.30;99.90
26505;DHT22;19493;48.042;7.584;2024-01-27T04:45:28;0.30;99.90
26505;DHT22;19493;48.042;7.584;2024-01-27T04:47:54;0.30;99.90
26505;DHT22;19493;48.042;7.584;2024-01-27T04:50:20;0.20;99.90
26505;DHT22;19493;48.042;7.584;2024-01-27T04:52:46;0.10;99.90
26505;DHT22;19493;48.042;7.584;2024-01-27T04:55:12;0.10;99.90
26505;DHT22;19493;48.042;7.584;2024-01-27T04:57:38;0.00;99.90
26505;DHT22;19493;48.042;7.584;2024-01-27T05:00:04;0.00;99.90
26505;DHT22;19493;48.042;7.584;2024-01-27T05:02:32;0.00;99.90
26505;DHT22;19493;48.042;7.584;2024-01-27T05:04:58;-0.10;99.90
26505;DHT22;19493;48.042;7.584;2024-01-27T05:07:24;0.00;99.90
26505;DHT22;19493;48.042;7.584;2024-01-27T05:09:50;0.00;99.90
26505;DHT22;19493;48.042;7.584;2024-01-27T05:12:15;0.00;99.90
26505;DHT22;19493;48.042;7.584;2024-01-27T05:14:45;0.10;99.90
26505;DHT22;19493;48.042;7.584;2024-01-27T05:17:11;0.10;99.90
26505;DHT22;19493;48.042;7.584;2024-01-27T05:19:36;0.20;99.90
26505;DHT22;19493;48.042;7.584;2024-01-27T05:22:02;0.20;99.90
26505;DHT22;19493;48.042;7.584;2024-01-27T05:24:27;0.20;99.90
26505;DHT22;19493;48.042;7.584;2024-01-27T05:26:53;0.20;99.90
26505;DHT22;19493;48.042;7.584;2024-01-27T05:29:19;0.40;99.90
26505;DHT22;19493;48.042;7.584;2024-01-27T05:31:44;0.50;99.90
26505;DHT22;19493;48.042;7.584;2024-01-27T05:34:10;0.50;99.90
26505;DHT22;19493;48.042;7.584;2024-01-27T05:36:36;0.50;99.90
26505;DHT22;19493;48.042;7.584;2024-01-27T05:39:02;0.40;99.90
26505;DHT22;19493;48.042;7.584;2024-01-27T05:41:30;0.30;99.90
26505;DHT22;19493;48.042;7.584;2024-01-27T05:43:56;0.30;99.90
26505;DHT22;19493;48.042;7.584;2024-01-27T05:46:25;0.20;99.90
26505;DHT22;19493;48.042;7.584;2024-01-27T05:48:51;0.20;99.90
26505;DHT22;19493;48.042;7.584;2024-01-27T05:51:19;0.20;99.90
26505;DHT22;19493;48.042;7.584;2024-01-27T05:53:45;0.10;99.90
26505;DHT22;19493;48.042;7.584;2024-01-27T05:56:11;0.10;99.90
26505;DHT22;19493;48.042;7.584;2024-01-27T05:58:37;0.00;99.90
26505;DHT22;19493;48.042;7.584;2024-01-27T06:01:03;0.00;99.90
26505;DHT22;19493;48.042;7.584;2024-01-27T06:03:29;-0.10;99.90
26505;DHT22;19493;48.042;7.584;2024-01-27T06:05:54;-0.20;99.90
26505;DHT22;19493;48.042;7.584;2024-01-27T06:08:20;-0.30;99.90
26505;DHT22;19493;48.042;7.584;2024-01-27T06:10:46;-0.30;99.90
26505;DHT22;19493;48.042;7.584;2024-01-27T06:13:12;-0.40;99.90
26505;DHT22;19493;48.042;7.584;2024-01-27T06:15:37;-0.40;99.90
26505;DHT22;19493;48.042;7.584;2024-01-27T06:18:03;-0.40;99.90
26505;DHT22;19493;48.042;7.584;2024-01-27T06:20:29;-0.40;99.90
26505;DHT22;19493;48.042;7.584;2024-01-27T06:22:54;-0.50;99.90
26505;DHT22;19493;48.042;7.584;2024-01-27T06:25:21;-0.40;99.90
26505;DHT22;19493;48.042;7.584;2024-01-27T06:27:46;-0.50;99.90
26505;DHT22;19493;48.042;7.584;2024-01-27T06:30:12;-0.50;99.90
26505;DHT22;19493;48.042;7.584;2024-01-27T06:32:39;-0.50;99.90
26505;DHT22;19493;48.042;7.584;2024-01-27T06:35:04;-0.50;99.90
26505;DHT22;19493;48.042;7.584;2024-01-27T06:37:30;-0.50;99.90
26505;DHT22;19493;48.042;7.584;2024-01-27T06:39:56;-0.50;99.90
26505;DHT22;19493;48.042;7.584;2024-01-27T06:42:21;-0.60;99.90
26505;DHT22;19493;48.042;7.584;2024-01-27T06:44:47;-0.70;99.90
26505;DHT22;19493;48.042;7.584;2024-01-27T06:47:13;-0.70;99.90
26505;DHT22;19493;48.042;7.584;2024-01-27T06:49:39;-0.70;99.90
26505;DHT22;19493;48.042;7.584;2024-01-27T06:52:04;-0.70;99.90
26505;DHT22;19493;48.042;7.584;2024-01-27T06:54:30;-0.80;99.90
26505;DHT22;19493;48.042;7.584;2024-01-27T06:56:55;-0.80;99.90
26505;DHT22;19493;48.042;7.584;2024-01-27T06:59:21;-0.70;99.90
26505;DHT22;19493;48.042;7.584;2024-01-27T07:01:47;-0.70;99.90
26505;DHT22;19493;48.042;7.584;2024-01-27T07:04:17;-0.60;99.90
26505;DHT22;19493;48.042;7.584;2024-01-27T07:06:43;-0.50;99.90
26505;DHT22;19493;48.042;7.584;2024-01-27T07:09:08;-0.50;99.90
26505;DHT22;19493;48.042;7.584;2024-01-27T07:11:37;-0.50;99.90
26505;DHT22;19493;48.042;7.584;2024-01-27T07:14:03;-0.50;99.90
26505;DHT22;19493;48.042;7.584;2024-01-27T07:16:29;-0.50;99.90
26505;DHT22;19493;48.042;7.584;2024-01-27T07:18:55;-0.50;99.90
26505;DHT22;19493;48.042;7.584;2024-01-27T07:21:21;-0.50;99.90
26505;DHT22;19493;48.042;7.584;2024-01-27T07:23:46;-0.50;99.90
26505;DHT22;19493;48.042;7.584;2024-01-27T07:26:12;-0.50;99.90
26505;DHT22;19493;48.042;7.584;2024-01-27T07:28:38;-0.50;99.90
26505;DHT22;19493;48.042;7.584;2024-01-27T07:31:05;-0.40;99.90
26505;DHT22;19493;48.042;7.584;2024-01-27T07:33:31;-0.40;99.90
26505;DHT22;19493;48.042;7.584;2024-01-27T07:35:56;-0.40;99.90
26505;DHT22;19493;48.042;7.584;2024-01-27T07:38:22;-0.30;99.90
26505;DHT22;19493;48.042;7.584;2024-01-27T07:40:48;-0.30;99.90
26505;DHT22;19493;48.042;7.584;2024-01-27T07:43:13;-0.20;99.90
26505;DHT22;19493;48.042;7.584;2024-01-27T07:45:39;-0.10;99.90
26505;DHT22;19493;48.042;7.584;2024-01-27T07:48:05;-0.10;99.90
26505;DHT22;19493;48.042;7.584;2024-01-27T07:50:30;0.00;99.90
26505;DHT22;19493;48.042;7.584;2024-01-27T07:52:57;0.00;99.90
26505;DHT22;19493;48.042;7.584;2024-01-27T07:55:22;0.10;99.90
26505;DHT22;19493;48.042;7.584;2024-01-27T07:57:48;0.10;99.90
26505;DHT22;19493;48.042;7.584;2024-01-27T08:00:14;0.20;99.90
26505;DHT22;19493;48.042;7.584;2024-01-27T08:02:40;0.30;99.90
26505;DHT22;19493;48.042;7.584;2024-01-27T08:05:05;0.30;99.90
26505;DHT22;19493;48.042;7.584;2024-01-27T08:07:31;0.40;99.90
26505;DHT22;19493;48.042;7.584;2024-01-27T08:09:57;0.50;99.90
26505;DHT22;19493;48.042;7.584;2024-01-27T08:12:23;0.60;99.90
26505;DHT22;19493;48.042;7.584;2024-01-27T08:14:49;0.70;99.90
26505;DHT22;19493;48.042;7.584;2024-01-27T08:17:14;0.80;99.90
26505;DHT22;19493;48.042;7.584;2024-01-27T08:19:40;0.90;99.90
26505;DHT22;19493;48.042;7.584;2024-01-27T08:22:06;0.90;99.90
26505;DHT22;19493;48.042;7.584;2024-01-27T08:24:31;1.00;99.90
26505;DHT22;19493;48.042;7.584;2024-01-27T08:26:57;1.00;99.90
26505;DHT22;19493;48.042;7.584;2024-01-27T08:29:23;1.00;99.90
26505;DHT22;19493;48.042;7.584;2024-01-27T08:31:49;1.10;99.90
26505;DHT22;19493;48.042;7.584;2024-01-27T08:34:14;1.10;99.90
26505;DHT22;19493;48.042;7.584;2024-01-27T08:36:40;1.20;99.90
26505;DHT22;19493;48.042;7.584;2024-01-27T08:39:06;1.30;99.90
26505;DHT22;19493;48.042;7.584;2024-01-27T08:41:34;1.40;99.90
26505;DHT22;19493;48.042;7.584;2024-01-27T08:44:00;1.70;99.90
26505;DHT22;19493;48.042;7.584;2024-01-27T08:46:25;2.00;99.90
26505;DHT22;19493;48.042;7.584;2024-01-27T08:48:51;2.30;99.90
26505;DHT22;19493;48.042;7.584;2024-01-27T08:51:17;3.10;99.90
26505;DHT22;19493;48.042;7.584;2024-01-27T08:53:44;3.50;99.90
26505;DHT22;19493;48.042;7.584;2024-01-27T08:56:17;3.30;99.90
26505;DHT22;19493;48.042;7.584;2024-01-27T08:58:46;3.20;99.90
26505;DHT22;19493;48.042;7.584;2024-01-27T09:01:18;3.10;99.90
26505;DHT22;19493;48.042;7.584;2024-01-27T09:03:44;3.10;99.90
26505;DHT22;19493;48.042;7.584;2024-01-27T09:06:10;3.30;99.90
26505;DHT22;19493;48.042;7.584;2024-01-27T09:08:35;4.70;99.90
26505;DHT22;19493;48.042;7.584;2024-01-27T09:11:02;6.40;99.90
26505;DHT22;19493;48.042;7.584;2024-01-27T09:13:28;7.80;99.90
26505;DHT22;19493;48.042;7.584;2024-01-27T09:15:53;8.80;99.90
26505;DHT22;19493;48.042;7.584;2024-01-27T09:18:19;9.90;99.90
26505;DHT22;19493;48.042;7.584;2024-01-27T09:20:45;11.20;99.90
26505;DHT22;19493;48.042;7.584;2024-01-27T09:23:10;12.10;99.90
26505;DHT22;19493;48.042;7.584;2024-01-27T09:25:37;12.50;99.90
26505;DHT22;19493;48.042;7.584;2024-01-27T09:28:02;13.40;99.90
26505;DHT22;19493;48.042;7.584;2024-01-27T09:30:28;14.30;99.90
26505;DHT22;19493;48.042;7.584;2024-01-27T09:32:54;14.80;99.00
26505;DHT22;19493;48.042;7.584;2024-01-27T09:35:20;15.60;97.90
26505;DHT22;19493;48.042;7.584;2024-01-27T09:37:46;16.00;92.10
26505;DHT22;19493;48.042;7.584;2024-01-27T09:40:12;16.30;88.90
26505;DHT22;19493;48.042;7.584;2024-01-27T09:42:38;16.80;85.60
26505;DHT22;19493;48.042;7.584;2024-01-27T09:45:08;17.10;80.80
26505;DHT22;19493;48.042;7.584;2024-01-27T09:47:34;17.40;78.50
26505;DHT22;19493;48.042;7.584;2024-01-27T09:50:01;17.60;72.50
26505;DHT22;19493;48.042;7.584;2024-01-27T09:52:28;17.90;72.10
26505;DHT22;19493;48.042;7.584;2024-01-27T09:54:53;18.10;70.40
26505;DHT22;19493;48.042;7.584;2024-01-27T09:57:19;18.30;67.10
26505;DHT22;19493;48.042;7.584;2024-01-27T09:59:47;18.50;64.90
26505;DHT22;19493;48.042;7.584;2024-01-27T10:02:15;18.40;64.30
26505;DHT22;19493;48.042;7.584;2024-01-27T10:04:43;18.90;63.80
26505;DHT22;19493;48.042;7.584;2024-01-27T10:07:09;19.30;62.70
26505;DHT22;19493;48.042;7.584;2024-01-27T10:09:34;19.30;60.20
26505;DHT22;19493;48.042;7.584;2024-01-27T10:12:02;18.90;60.50
26505;DHT22;19493;48.042;7.584;2024-01-27T10:14:41;19.30;59.60
26505;DHT22;19493;48.042;7.584;2024-01-27T10:17:11;19.70;58.60
26505;DHT22;19493;48.042;7.584;2024-01-27T10:19:37;20.30;57.90
26505;DHT22;19493;48.042;7.584;2024-01-27T10:22:03;20.90;56.60
26505;DHT22;19493;48.042;7.584;2024-01-27T10:24:30;21.40;54.50
26505;DHT22;19493;48.042;7.584;2024-01-27T10:27:03;21.90;53.30
26505;DHT22;19493;48.042;7.584;2024-01-27T10:29:32;22.20;52.40
26505;DHT22;19493;48.042;7.584;2024-01-27T10:32:08;22.50;51.10
26505;DHT22;19493;48.042;7.584;2024-01-27T10:34:34;22.70;50.10
26505;DHT22;19493;48.042;7.584;2024-01-27T10:37:00;22.70;50.10
26505;DHT22;19493;48.042;7.584;2024-01-27T10:39:25;22.70;48.80
26505;DHT22;19493;48.042;7.584;2024-01-27T10:41:51;22.50;48.30
26505;DHT22;19493;48.042;7.584;2024-01-27T10:44:18;22.70;48.40
26505;DHT22;19493;48.042;7.584;2024-01-27T10:46:48;22.60;48.00
26505;DHT22;19493;48.042;7.584;2024-01-27T10:49:16;22.70;48.50
26505;DHT22;19493;48.042;7.584;2024-01-27T10:51:55;22.70;48.20
26505;DHT22;19493;48.042;7.584;2024-01-27T10:54:28;23.30;47.30
26505;DHT22;19493;48.042;7.584;2024-01-27T10:56:56;23.40;46.10
26505;DHT22;19493;48.042;7.584;2024-01-27T10:59:22;24.40;45.30
26505;DHT22;19493;48.042;7.584;2024-01-27T11:01:52;24.90;45.10
26505;DHT22;19493;48.042;7.584;2024-01-27T11:04:20;24.90;42.50
26505;DHT22;19493;48.042;7.584;2024-01-27T11:06:48;24.30;43.10
26505;DHT22;19493;48.042;7.584;2024-01-27T11:09:14;24.10;44.40
26505;DHT22;19493;48.042;7.584;2024-01-27T11:11:43;24.50;44.10
26505;DHT22;19493;48.042;7.584;2024-01-27T11:14:10;24.90;43.30
26505;DHT22;19493;48.042;7.584;2024-01-27T11:16:36;25.20;42.40
26505;DHT22;19493;48.042;7.584;2024-01-27T11:19:10;25.60;42.00
26505;DHT22;19493;48.042;7.584;2024-01-27T11:21:36;25.40;42.30
26505;DHT22;19493;48.042;7.584;2024-01-27T11:24:14;25.50;40.80
26505;DHT22;19493;48.042;7.584;2024-01-27T11:26:40;26.00;41.30
26505;DHT22;19493;48.042;7.584;2024-01-27T11:29:08;25.90;40.50
26505;DHT22;19493;48.042;7.584;2024-01-27T11:31:40;25.50;40.40
26505;DHT22;19493;48.042;7.584;2024-01-27T11:34:10;24.80;41.40
26505;DHT22;19493;48.042;7.584;2024-01-27T11:36:38;24.10;42.20
26505;DHT22;19493;48.042;7.584;2024-01-27T11:39:04;24.00;42.70
26505;DHT22;19493;48.042;7.584;2024-01-27T11:41:30;24.20;42.20
26505;DHT22;19493;48.042;7.584;2024-01-27T11:43:57;24.00;42.30
26505;DHT22;19493;48.042;7.584;2024-01-27T11:46:23;24.30;42.10
26505;DHT22;19493;48.042;7.584;2024-01-27T11:48:49;24.20;41.80
26505;DHT22;19493;48.042;7.584;2024-01-27T11:51:15;24.20;42.50
26505;DHT22;19493;48.042;7.584;2024-01-27T11:53:41;24.40;41.70
26505;DHT22;19493;48.042;7.584;2024-01-27T11:56:07;24.60;40.50
26505;DHT22;19493;48.042;7.584;2024-01-27T11:58:33;23.30;42.50
26505;DHT22;19493;48.042;7.584;2024-01-27T12:00:58;23.90;42.30
26505;DHT22;19493;48.042;7.584;2024-01-27T12:03:27;24.10;40.60
26505;DHT22;19493;48.042;7.584;2024-01-27T12:05:54;24.30;41.60
26505;DHT22;19493;48.042;7.584;2024-01-27T12:08:20;24.60;41.10
26505;DHT22;19493;48.042;7.584;2024-01-27T12:10:45;24.50;41.40
26505;DHT22;19493;48.042;7.584;2024-01-27T12:13:11;24.50;42.00
26505;DHT22;19493;48.042;7.584;2024-01-27T12:15:36;25.00;40.70
26505;DHT22;19493;48.042;7.584;2024-01-27T12:18:04;24.90;40.30
26505;DHT22;19493;48.042;7.584;2024-01-27T12:20:30;24.40;40.70
26505;DHT22;19493;48.042;7.584;2024-01-27T12:23:06;24.30;41.90
26505;DHT22;19493;48.042;7.584;2024-01-27T12:25:32;24.70;41.70
26505;DHT22;19493;48.042;7.584;2024-01-27T12:28:05;25.00;40.90
26505;DHT22;19493;48.042;7.584;2024-01-27T12:30:33;24.80;40.90
26505;DHT22;19493;48.042;7.584;2024-01-27T12:32:59;24.90;40.80
26505;DHT22;19493;48.042;7.584;2024-01-27T12:35:26;23.80;41.70
26505;DHT22;19493;48.042;7.584;2024-01-27T12:37:52;23.60;42.30
26505;DHT22;19493;48.042;7.584;2024-01-27T12:40:22;24.00;41.30
26505;DHT22;19493;48.042;7.584;2024-01-27T12:42:48;24.20;41.20
26505;DHT22;19493;48.042;7.584;2024-01-27T12:45:14;23.90;42.40
26505;DHT22;19493;48.042;7.584;2024-01-27T12:47:40;24.50;41.70
26505;DHT22;19493;48.042;7.584;2024-01-27T12:50:06;24.40;42.90
26505;DHT22;19493;48.042;7.584;2024-01-27T12:52:32;24.80;42.30
26505;DHT22;19493;48.042;7.584;2024-01-27T12:54:58;24.40;42.00
26505;DHT22;19493;48.042;7.584;2024-01-27T12:57:23;24.40;43.40
26505;DHT22;19493;48.042;7.584;2024-01-27T12:59:49;22.20;44.10
26505;DHT22;19493;48.042;7.584;2024-01-27T13:02:14;18.20;49.60
26505;DHT22;19493;48.042;7.584;2024-01-27T13:04:41;14.90;56.40
26505;DHT22;19493;48.042;7.584;2024-01-27T13:07:07;12.40;64.50
26505;DHT22;19493;48.042;7.584;2024-01-27T13:09:33;11.30;70.30
26505;DHT22;19493;48.042;7.584;2024-01-27T13:11:58;10.40;72.70
26505;DHT22;19493;48.042;7.584;2024-01-27T13:14:24;9.80;75.80
26505;DHT22;19493;48.042;7.584;2024-01-27T13:16:50;9.50;78.40
26505;DHT22;19493;48.042;7.584;2024-01-27T13:19:16;9.30;80.60
26505;DHT22;19493;48.042;7.584;2024-01-27T13:21:42;9.10;80.30
26505;DHT22;19493;48.042;7.584;2024-01-27T13:24:08;8.90;82.70
26505;DHT22;19493;48.042;7.584;2024-01-27T13:26:34;8.80;85.20
26505;DHT22;19493;48.042;7.584;2024-01-27T13:29:03;8.60;88.30
26505;DHT22;19493;48.042;7.584;2024-01-27T13:31:29;8.50;92.90
26505;DHT22;19493;48.042;7.584;2024-01-27T13:33:56;8.40;95.60
26505;DHT22;19493;48.042;7.584;2024-01-27T13:36:22;8.30;98.80
26505;DHT22;19493;48.042;7.584;2024-01-27T13:38:48;8.20;99.90
26505;DHT22;19493;48.042;7.584;2024-01-27T13:41:13;8.20;99.90
26505;DHT22;19493;48.042;7.584;2024-01-27T13:43:40;8.20;99.90
26505;DHT22;19493;48.042;7.584;2024-01-27T13:46:06;8.20;99.90
26505;DHT22;19493;48.042;7.584;2024-01-27T13:48:32;8.20;99.90
26505;DHT22;19493;48.042;7.584;2024-01-27T13:50:58;8.20;99.90
26505;DHT22;19493;48.042;7.584;2024-01-27T13:53:23;8.20;99.90
26505;DHT22;19493;48.042;7.584;2024-01-27T13:55:49;8.20;99.90
26505;DHT22;19493;48.042;7.584;2024-01-27T13:58:15;8.30;99.90
26505;DHT22;19493;48.042;7.584;2024-01-27T14:00:40;8.30;99.90
26505;DHT22;19493;48.042;7.584;2024-01-27T14:03:06;8.30;99.90
26505;DHT22;19493;48.042;7.584;2024-01-27T14:05:32;8.20;99.90
26505;DHT22;19493;48.042;7.584;2024-01-27T14:07:57;8.20;99.90
26505;DHT22;19493;48.042;7.584;2024-01-27T14:10:24;8.10;99.90
26505;DHT22;19493;48.042;7.584;2024-01-27T14:12:50;8.00;99.90
26505;DHT22;19493;48.042;7.584;2024-01-27T14:15:16;7.90;99.90
26505;DHT22;19493;48.042;7.584;2024-01-27T14:17:43;7.80;99.90
26505;DHT22;19493;48.042;7.584;2024-01-27T14:20:09;7.80;99.90
26505;DHT22;19493;48.042;7.584;2024-01-27T14:22:35;7.70;99.90
26505;DHT22;19493;48.042;7.584;2024-01-27T14:25:01;7.70;99.90
26505;DHT22;19493;48.042;7.584;2024-01-27T14:27:27;7.70;99.90
26505;DHT22;19493;48.042;7.584;2024-01-27T14:29:54;7.70;99.90
26505;DHT22;19493;48.042;7.584;2024-01-27T14:32:20;7.60;99.90
26505;DHT22;19493;48.042;7.584;2024-01-27T14:34:46;7.60;99.90
26505;DHT22;19493;48.042;7.584;2024-01-27T14:37:13;7.60;99.90
26505;DHT22;19493;48.042;7.584;2024-01-27T14:39:39;7.60;99.90
26505;DHT22;19493;48.042;7.584;2024-01-27T14:42:08;7.60;99.90
26505;DHT22;19493;48.042;7.584;2024-01-27T14:44:33;7.70;99.90
26505;DHT22;19493;48.042;7.584;2024-01-27T14:46:59;7.70;99.90
26505;DHT22;19493;48.042;7.584;2024-01-27T14:49:25;7.80;99.90
26505;DHT22;19493;48.042;7.584;2024-01-27T14:51:53;8.00;99.90
26505;DHT22;19493;48.042;7.584;2024-01-27T14:54:18;8.10;99.90
26505;DHT22;19493;48.042;7.584;2024-01-27T14:56:44;8.10;99.90
26505;DHT22;19493;48.042;7.584;2024-01-27T14:59:09;8.10;99.90
26505;DHT22;19493;48.042;7.584;2024-01-27T15:01:35;8.10;99.90
26505;DHT22;19493;48.042;7.584;2024-01-27T15:04:01;8.10;99.90
26505;DHT22;19493;48.042;7.584;2024-01-27T15:06:27;8.10;99.90
26505;DHT22;19493;48.042;7.584;2024-01-27T15:08:53;8.10;99.90
26505;DHT22;19493;48.042;7.584;2024-01-27T15:11:19;8.20;99.90
26505;DHT22;19493;48.042;7.584;2024-01-27T15:13:44;8.20;99.90
26505;DHT22;19493;48.042;7.584;2024-01-27T15:16:10;8.20;99.90
26505;DHT22;19493;48.042;7.584;2024-01-27T15:18:36;8.20;99.90
26505;DHT22;19493;48.042;7.584;2024-01-27T15:21:06;8.20;99.90
26505;DHT22;19493;48.042;7.584;2024-01-27T15:23:31;8.20;99.90
26505;DHT22;19493;48.042;7.584;2024-01-27T15:25:57;8.20;99.90
26505;DHT22;19493;48.042;7.584;2024-01-27T15:28:24;8.20;99.90
26505;DHT22;19493;48.042;7.584;2024-01-27T15:30:50;8.20;99.90
26505;DHT22;19493;48.042;7.584;2024-01-27T15:33:16;8.20;99.90